Time;durP1;ratioP1;P1;durP2;ratioP2;P2;SDS_P1;SDS_P2;PMS_P1;PMS_P2;Temp;Humidity;BMP_temperature;BMP_pressure;BME280_temperature;BME280_humidity;BME280_pressure;Samples;Min_cycle;Max_cycle;Signal;HPM_P1;HPM_P2
2022/11/14 00:00:40;;;;;;;3.80;3.17;;;11.60;99.90;;;;;;5087099;28;20510;-80
2022/11/14 00:03:07;;;;;;;4.22;3.42;;;11.70;99.90;;;;;;5097051;28;20016;-80
2022/11/14 00:05:38;;;;;;;3.88;3.47;;;11.70;99.90;;;;;;5094023;28;20032;-78
2022/11/14 00:08:04;;;;;;;4.43;3.50;;;11.70;99.90;;;;;;5094393;28;20020;-78
2022/11/14 00:10:30;;;;;;;4.22;3.50;;;11.70;99.90;;;;;;5113616;28;20031;-79
2022/11/14 00:12:56;;;;;;;4.75;3.60;;;11.70;99.90;;;;;;5099730;28;20030;-78
2022/11/14 00:15:21;;;;;;;3.97;3.53;;;11.60;99.90;;;;;;5105577;28;20083;-78
2022/11/14 00:17:47;;;;;;;3.83;3.33;;;11.60;99.90;;;;;;5086217;28;20476;-78
2022/11/14 00:20:13;;;;;;;3.80;3.25;;;11.60;99.90;;;;;;5120230;28;20088;-79
2022/11/14 00:22:38;;;;;;;3.70;3.17;;;11.60;99.90;;;;;;5117022;28;20030;-78
2022/11/14 00:25:05;;;;;;;3.30;2.95;;;11.50;99.90;;;;;;5119946;28;20024;-78
2022/11/14 00:27:31;;;;;;;3.63;2.92;;;11.50;99.90;;;;;;5093726;28;20492;-80
2022/11/14 00:29:56;;;;;;;3.47;2.80;;;11.50;99.90;;;;;;5112925;28;20059;-80
2022/11/14 00:32:22;;;;;;;4.07;3.67;;;11.50;99.90;;;;;;5120003;28;20053;-80
2022/11/14 00:34:48;;;;;;;4.03;3.10;;;11.50;99.90;;;;;;5120057;28;20031;-81
2022/11/14 00:37:14;;;;;;;3.72;2.90;;;11.40;99.90;;;;;;5119447;28;20052;-79
2022/11/14 00:39:39;;;;;;;3.50;2.50;;;11.40;99.90;;;;;;5103298;28;20111;-81
2022/11/14 00:42:05;;;;;;;4.10;3.15;;;11.40;99.90;;;;;;5093624;28;20040;-81
2022/11/14 00:44:31;;;;;;;3.28;2.78;;;11.40;99.90;;;;;;5101496;28;20024;-81
2022/11/14 00:46:57;;;;;;;3.75;3.22;;;11.40;99.90;;;;;;5109001;28;20028;-81
2022/11/14 00:49:22;;;;;;;2.97;2.45;;;11.30;99.90;;;;;;5082345;28;20500;-81
2022/11/14 00:51:48;;;;;;;3.33;2.50;;;11.30;99.90;;;;;;5081791;28;20496;-85
2022/11/14 00:54:14;;;;;;;3.20;2.80;;;11.30;99.90;;;;;;5099338;28;20024;-85
2022/11/14 00:56:40;;;;;;;3.13;2.70;;;11.20;99.90;;;;;;5082442;28;20444;-84
2022/11/14 00:59:06;;;;;;;3.05;2.40;;;11.20;99.90;;;;;;5088828;28;20081;-80
2022/11/14 01:01:31;;;;;;;4.35;3.95;;;11.20;99.90;;;;;;5087885;28;20114;-79
2022/11/14 01:03:57;;;;;;;3.45;2.67;;;11.20;99.90;;;;;;5112615;28;20051;-79
2022/11/14 01:06:22;;;;;;;3.00;2.50;;;11.20;99.90;;;;;;5099531;28;20086;-79
2022/11/14 01:08:50;;;;;;;3.00;2.60;;;11.10;99.90;;;;;;5113533;28;20027;-78
2022/11/14 01:11:19;;;;;;;2.55;2.28;;;11.20;99.90;;;;;;5103785;28;20059;-79
2022/11/14 01:13:45;;;;;;;3.45;3.15;;;11.10;99.90;;;;;;5090752;28;20032;-79
2022/11/14 01:16:10;;;;;;;3.00;2.65;;;11.10;99.90;;;;;;5101729;28;20512;-79
2022/11/14 01:18:37;;;;;;;3.15;2.85;;;11.10;99.90;;;;;;5107360;28;20024;-79
2022/11/14 01:21:07;;;;;;;3.47;2.40;;;11.10;99.90;;;;;;5109931;28;20396;-79
2022/11/14 01:23:33;;;;;;;4.40;3.60;;;11.10;99.90;;;;;;5111842;28;20032;-79
2022/11/14 01:26:07;;;;;;;3.42;2.80;;;11.10;99.90;;;;;;5103269;28;20091;-79
2022/11/14 01:28:33;;;;;;;2.80;2.47;;;11.10;99.90;;;;;;5094675;28;20487;-79
2022/11/14 01:31:17;;;;;;;2.95;2.30;;;11.10;99.90;;;;;;5115622;28;20031;-79
2022/11/14 01:33:43;;;;;;;2.72;2.42;;;11.10;99.90;;;;;;5090910;28;20085;-78
2022/11/14 01:36:09;;;;;;;3.28;2.88;;;11.00;99.90;;;;;;5106992;28;20028;-79
2022/11/14 01:38:35;;;;;;;2.50;2.30;;;11.00;99.90;;;;;;5111677;28;20028;-79
2022/11/14 01:41:02;;;;;;;2.90;2.28;;;11.00;99.90;;;;;;5102307;28;20402;-81
2022/11/14 01:43:33;;;;;;;2.53;2.22;;;11.10;99.90;;;;;;5092294;28;20519;-81
2022/11/14 01:46:04;;;;;;;2.92;2.60;;;11.00;99.90;;;;;;5112098;28;20103;-81
2022/11/14 01:48:48;;;;;;;2.63;2.22;;;11.10;99.90;;;;;;5115597;28;20040;-79
2022/11/14 01:51:17;;;;;;;2.83;2.38;;;11.10;99.90;;;;;;5095957;28;20027;-79
2022/11/14 01:53:44;;;;;;;2.25;2.05;;;11.10;99.90;;;;;;5106583;28;20484;-82
2022/11/14 01:56:13;;;;;;;2.50;2.22;;;11.10;99.90;;;;;;5088452;28;20365;-80
2022/11/14 01:58:43;;;;;;;3.83;2.88;;;11.10;99.90;;;;;;5096261;28;20028;-80
2022/11/14 02:01:09;;;;;;;2.20;2.00;;;11.10;99.90;;;;;;5099837;28;20024;-79
2022/11/14 02:03:40;;;;;;;2.88;2.38;;;11.10;99.90;;;;;;5106081;28;20039;-78
2022/11/14 02:06:07;;;;;;;2.58;2.30;;;11.10;99.90;;;;;;5116543;28;20384;-79
2022/11/14 02:08:34;;;;;;;2.30;2.03;;;11.20;99.90;;;;;;5107617;28;20047;-81
2022/11/14 02:10:59;;;;;;;3.33;2.38;;;11.10;99.90;;;;;;5116686;28;20498;-81
2022/11/14 02:13:25;;;;;;;2.90;2.40;;;11.10;99.90;;;;;;5105903;28;20024;-81
2022/11/14 02:15:51;;;;;;;2.97;2.65;;;11.10;99.90;;;;;;5100995;28;20042;-81
2022/11/14 02:18:16;;;;;;;2.95;2.10;;;11.10;99.90;;;;;;5094983;28;20020;-80
2022/11/14 02:20:42;;;;;;;2.47;2.28;;;11.10;99.90;;;;;;5084158;28;20078;-81
2022/11/14 02:23:10;;;;;;;3.35;2.60;;;11.00;99.90;;;;;;5097794;28;20071;-81
2022/11/14 02:25:36;;;;;;;2.40;2.20;;;11.00;99.90;;;;;;5082149;28;20028;-79
2022/11/14 02:28:04;;;;;;;2.40;2.15;;;11.00;99.90;;;;;;5105332;28;20099;-79
2022/11/14 02:30:30;;;;;;;2.80;2.30;;;11.00;99.90;;;;;;5094940;28;20076;-78
2022/11/14 02:32:55;;;;;;;2.50;2.28;;;10.90;99.90;;;;;;5103093;28;20091;-79
2022/11/14 02:35:21;;;;;;;2.50;2.00;;;10.90;99.90;;;;;;5084139;28;20043;-79
2022/11/14 02:37:52;;;;;;;3.45;3.15;;;10.90;99.90;;;;;;5094096;28;20080;-81
2022/11/14 02:40:20;;;;;;;2.58;2.30;;;10.80;99.90;;;;;;5085453;28;20027;-81
2022/11/14 02:43:03;;;;;;;2.20;2.00;;;10.70;99.90;;;;;;5114149;28;20551;-81
2022/11/14 02:45:29;;;;;;;2.60;2.20;;;10.70;99.90;;;;;;5088555;28;20036;-78
2022/11/14 02:47:54;;;;;;;2.60;2.40;;;10.70;99.90;;;;;;5105647;28;20032;-80
2022/11/14 02:50:20;;;;;;;3.13;2.83;;;10.70;99.90;;;;;;5107946;28;20051;-83
2022/11/14 02:52:46;;;;;;;2.60;2.00;;;10.70;99.90;;;;;;5106897;28;20038;-82
2022/11/14 02:55:11;;;;;;;2.75;2.38;;;10.70;99.90;;;;;;5093294;28;20095;-79
2022/11/14 02:57:37;;;;;;;3.42;2.70;;;10.70;99.90;;;;;;5102522;28;20015;-79
2022/11/14 03:00:04;;;;;;;4.00;2.67;;;10.60;99.90;;;;;;5087137;28;20032;-79
2022/11/14 03:02:30;;;;;;;2.50;2.25;;;10.60;99.90;;;;;;5103993;28;20130;-78
2022/11/14 03:04:56;;;;;;;4.18;3.10;;;10.70;99.90;;;;;;5106094;28;20492;-79
2022/11/14 03:07:21;;;;;;;2.88;2.42;;;10.60;99.90;;;;;;5109076;28;20034;-79
2022/11/14 03:09:47;;;;;;;2.78;2.38;;;10.60;99.90;;;;;;5113770;28;20059;-77
2022/11/14 03:12:16;;;;;;;3.05;2.72;;;10.60;99.90;;;;;;5097637;28;20055;-78
2022/11/14 03:14:42;;;;;;;3.25;2.60;;;10.60;99.90;;;;;;5090915;28;20102;-78
2022/11/14 03:17:08;;;;;;;3.72;3.33;;;10.60;99.90;;;;;;5103091;28;20058;-79
2022/11/14 03:19:33;;;;;;;2.97;2.58;;;10.60;99.90;;;;;;5104959;28;20031;-79
2022/11/14 03:21:59;;;;;;;2.90;2.63;;;10.60;99.90;;;;;;5095729;28;20035;-79
2022/11/14 03:24:25;;;;;;;3.15;2.78;;;10.60;99.90;;;;;;5079828;28;20039;-79
2022/11/14 03:26:50;;;;;;;2.80;2.47;;;10.60;99.90;;;;;;5096505;28;20106;-79
2022/11/14 03:29:16;;;;;;;2.50;2.30;;;10.60;99.90;;;;;;5107414;28;20881;-79
2022/11/14 03:31:42;;;;;;;2.65;2.40;;;10.60;99.90;;;;;;5088381;28;20032;-79
2022/11/14 03:34:09;;;;;;;3.38;2.83;;;10.60;99.90;;;;;;5110579;28;20051;-79
2022/11/14 03:36:35;;;;;;;2.55;2.35;;;10.60;99.90;;;;;;5091369;28;20047;-76
2022/11/14 03:39:02;;;;;;;2.75;2.50;;;10.60;99.90;;;;;;5109486;28;20032;-76
2022/11/14 03:41:27;;;;;;;2.58;2.35;;;10.70;99.90;;;;;;5116455;28;20032;-77
2022/11/14 03:43:53;;;;;;;2.50;2.30;;;10.70;99.90;;;;;;5106786;28;20034;-77
2022/11/14 03:46:19;;;;;;;2.67;2.30;;;10.70;99.90;;;;;;5115283;28;20027;-77
2022/11/14 03:48:45;;;;;;;2.88;2.22;;;10.70;99.90;;;;;;5121511;28;20056;-78
2022/11/14 03:51:10;;;;;;;2.85;2.20;;;10.70;99.90;;;;;;5094650;28;20099;-81
2022/11/14 03:53:36;;;;;;;2.60;2.30;;;10.60;99.90;;;;;;5116195;28;20027;-81
2022/11/14 03:56:02;;;;;;;2.45;2.25;;;10.60;99.90;;;;;;5117168;28;20046;-82
2022/11/14 03:58:28;;;;;;;2.60;2.15;;;10.70;99.90;;;;;;5108016;28;20028;-81
2022/11/14 04:00:57;;;;;;;2.55;2.33;;;10.70;99.90;;;;;;5101887;28;20024;-81
2022/11/14 04:03:23;;;;;;;2.55;2.28;;;10.70;99.90;;;;;;5089979;28;20032;-78
2022/11/14 04:05:50;;;;;;;2.60;2.40;;;10.70;99.90;;;;;;5097701;28;20023;-77
2022/11/14 04:08:16;;;;;;;2.88;2.47;;;10.70;99.90;;;;;;5101958;28;20111;-77
2022/11/14 04:10:41;;;;;;;2.60;2.25;;;10.60;99.90;;;;;;5108143;28;20051;-78
2022/11/14 04:13:08;;;;;;;2.42;2.22;;;10.60;99.90;;;;;;5110447;28;20650;-79
2022/11/14 04:15:34;;;;;;;2.55;2.15;;;10.70;99.90;;;;;;5113506;28;20530;-78
2022/11/14 04:18:00;;;;;;;2.70;2.47;;;10.70;99.90;;;;;;5103204;28;20039;-78
2022/11/14 04:20:25;;;;;;;2.50;2.30;;;10.70;99.90;;;;;;5085067;28;20020;-79
2022/11/14 04:22:51;;;;;;;2.92;2.55;;;10.70;99.90;;;;;;5100002;28;20089;-78
2022/11/14 04:25:17;;;;;;;2.55;2.30;;;10.70;99.90;;;;;;5103370;28;20026;-78
2022/11/14 04:27:42;;;;;;;2.72;2.42;;;10.70;99.90;;;;;;5106327;28;20111;-78
2022/11/14 04:30:09;;;;;;;2.42;2.05;;;10.70;99.90;;;;;;5116448;28;20055;-79
2022/11/14 04:32:34;;;;;;;2.63;2.20;;;10.70;99.90;;;;;;5105662;28;20032;-79
2022/11/14 04:35:00;;;;;;;2.33;2.00;;;10.70;99.90;;;;;;5116449;28;20081;-78
2022/11/14 04:37:25;;;;;;;2.72;2.15;;;10.70;99.90;;;;;;5102166;28;20077;-78
2022/11/14 04:39:51;;;;;;;2.67;2.42;;;10.80;99.90;;;;;;5083789;28;20023;-78
2022/11/14 04:42:17;;;;;;;2.15;1.90;;;10.80;99.90;;;;;;5111773;28;20035;-80
2022/11/14 04:44:42;;;;;;;2.63;2.25;;;10.80;99.90;;;;;;5098283;28;20318;-79
2022/11/14 04:47:08;;;;;;;2.20;2.00;;;10.80;99.90;;;;;;5110381;28;20046;-79
2022/11/14 04:49:34;;;;;;;2.78;2.55;;;10.80;99.90;;;;;;5119304;28;20530;-79
2022/11/14 04:52:00;;;;;;;2.50;2.30;;;10.80;99.90;;;;;;5114387;28;20080;-76
2022/11/14 04:54:25;;;;;;;2.63;2.08;;;10.70;99.90;;;;;;5101566;28;20020;-77
2022/11/14 04:56:51;;;;;;;2.78;2.40;;;10.70;99.90;;;;;;5104687;28;20584;-77
2022/11/14 04:59:16;;;;;;;2.70;2.33;;;10.70;99.90;;;;;;5113510;28;20020;-77
2022/11/14 05:01:42;;;;;;;2.30;2.10;;;10.70;99.90;;;;;;5090639;28;20032;-78
2022/11/14 05:04:07;;;;;;;3.63;2.70;;;10.70;99.90;;;;;;5112003;28;20054;-77
2022/11/14 05:06:33;;;;;;;2.80;2.50;;;10.70;99.90;;;;;;5103469;28;20099;-77
2022/11/14 05:08:59;;;;;;;2.90;2.33;;;10.70;99.90;;;;;;5113302;28;20111;-78
2022/11/14 05:11:24;;;;;;;2.38;2.05;;;10.60;99.90;;;;;;5104167;28;20022;-78
2022/11/14 05:13:50;;;;;;;3.65;2.40;;;10.70;99.90;;;;;;5100523;28;20079;-76
2022/11/14 05:16:16;;;;;;;2.28;2.08;;;10.70;99.90;;;;;;5108846;28;20015;-85
2022/11/14 05:18:41;;;;;;;3.55;2.95;;;10.70;99.90;;;;;;5082507;28;20503;-79
2022/11/14 05:21:12;;;;;;;2.60;2.40;;;10.70;99.90;;;;;;5102492;28;20075;-76
2022/11/14 05:23:38;;;;;;;4.28;3.28;;;10.70;99.90;;;;;;5101804;28;20564;-80
2022/11/14 05:26:06;;;;;;;2.63;2.28;;;10.80;99.90;;;;;;5071095;28;20121;-80
2022/11/14 05:28:33;;;;;;;2.53;2.22;;;10.70;99.90;;;;;;5080355;28;20027;-82
2022/11/14 05:31:01;;;;;;;2.50;2.30;;;10.80;99.90;;;;;;5082276;28;20947;-82
2022/11/14 05:33:28;;;;;;;3.90;3.03;;;10.80;99.90;;;;;;5077802;28;20021;-82
2022/11/14 05:35:53;;;;;;;3.17;2.83;;;10.80;99.90;;;;;;5077938;28;20481;-82
2022/11/14 05:38:19;;;;;;;2.30;2.10;;;10.80;99.90;;;;;;5112247;28;20023;-82
2022/11/14 05:40:44;;;;;;;2.83;2.35;;;10.80;99.90;;;;;;5080801;28;20118;-85
2022/11/14 05:43:10;;;;;;;2.50;2.28;;;10.90;99.90;;;;;;5088676;28;20451;-85
2022/11/14 05:45:36;;;;;;;2.83;2.53;;;10.90;99.90;;;;;;5092421;28;20110;-81
2022/11/14 05:48:01;;;;;;;2.72;2.15;;;10.90;99.90;;;;;;5100967;28;20071;-81
2022/11/14 05:50:27;;;;;;;3.15;2.45;;;10.90;99.90;;;;;;5105331;28;20061;-80
2022/11/14 05:52:52;;;;;;;2.80;2.45;;;10.90;99.90;;;;;;5114901;28;20015;-82
2022/11/14 05:55:18;;;;;;;3.67;2.30;;;10.90;99.90;;;;;;5105516;28;20117;-82
2022/11/14 05:57:44;;;;;;;2.45;2.25;;;10.90;99.90;;;;;;5107841;28;20026;-83
2022/11/14 06:00:10;;;;;;;2.75;2.45;;;10.90;99.90;;;;;;5107093;28;20103;-81
2022/11/14 06:02:35;;;;;;;3.20;2.45;;;11.00;99.90;;;;;;5100635;28;20066;-81
2022/11/14 06:05:01;;;;;;;3.00;2.35;;;11.00;99.90;;;;;;5093606;28;20031;-82
2022/11/14 06:07:27;;;;;;;2.30;2.05;;;11.10;99.90;;;;;;5101117;28;20124;-81
2022/11/14 06:09:52;;;;;;;2.85;2.47;;;11.10;99.90;;;;;;5086529;28;20039;-81
2022/11/14 06:12:18;;;;;;;2.63;2.28;;;11.10;99.90;;;;;;5106235;28;20135;-81
2022/11/14 06:14:43;;;;;;;2.83;2.20;;;11.20;99.90;;;;;;5111821;28;20099;-81
2022/11/14 06:17:09;;;;;;;2.95;2.20;;;11.20;99.90;;;;;;5100217;28;20055;-79
2022/11/14 06:19:35;;;;;;;3.17;2.00;;;11.30;99.90;;;;;;5111751;28;20424;-79
2022/11/14 06:22:00;;;;;;;3.10;2.38;;;11.30;99.90;;;;;;5117534;28;20527;-79
2022/11/14 06:24:26;;;;;;;2.47;2.28;;;11.30;99.90;;;;;;5118650;28;20483;-79
2022/11/14 06:26:51;;;;;;;2.78;2.20;;;11.30;99.90;;;;;;5110688;28;20499;-79
2022/11/14 06:29:17;;;;;;;2.33;2.13;;;11.30;99.90;;;;;;5111947;28;20434;-82
2022/11/14 06:31:43;;;;;;;2.30;2.00;;;11.30;99.90;;;;;;5100163;28;20031;-81
2022/11/14 06:34:10;;;;;;;2.30;2.10;;;11.30;99.90;;;;;;5118336;28;20032;-81
2022/11/14 06:36:36;;;;;;;2.80;2.40;;;11.30;99.90;;;;;;5099588;28;20054;-82
2022/11/14 06:39:01;;;;;;;2.92;2.63;;;11.30;99.90;;;;;;5107132;28;20024;-82
2022/11/14 06:41:27;;;;;;;2.78;2.38;;;11.30;99.90;;;;;;5114581;28;20399;-82
2022/11/14 06:43:53;;;;;;;3.22;2.45;;;11.30;99.90;;;;;;5118168;28;20036;-82
2022/11/14 06:46:21;;;;;;;2.88;2.47;;;11.30;99.90;;;;;;5091623;28;20027;-83
2022/11/14 06:48:48;;;;;;;3.22;2.83;;;11.30;99.90;;;;;;5118247;28;20054;-83
2022/11/14 06:51:15;;;;;;;3.25;2.35;;;11.30;99.90;;;;;;5100169;28;20110;-82
2022/11/14 06:53:41;;;;;;;2.70;2.05;;;11.30;99.90;;;;;;5099932;28;20132;-83
2022/11/14 06:56:10;;;;;;;2.88;2.20;;;11.30;99.90;;;;;;5100141;28;20020;-82
2022/11/14 06:58:40;;;;;;;2.60;2.30;;;11.30;99.90;;;;;;5093210;28;20032;-81
2022/11/14 07:01:06;;;;;;;2.35;2.15;;;11.30;99.90;;;;;;5099613;28;20154;-81
2022/11/14 07:03:33;;;;;;;2.58;2.30;;;11.40;99.90;;;;;;5099697;28;20043;-80
2022/11/14 07:06:00;;;;;;;2.58;2.30;;;11.40;99.90;;;;;;5079312;28;20488;-81
2022/11/14 07:08:26;;;;;;;2.72;2.20;;;11.40;99.90;;;;;;5079191;28;20085;-81
2022/11/14 07:10:52;;;;;;;3.42;2.63;;;11.40;99.90;;;;;;5070923;28;20067;-81
2022/11/14 07:13:17;;;;;;;2.63;2.15;;;11.40;99.90;;;;;;5092001;28;20019;-81
2022/11/14 07:15:52;;;;;;;2.50;2.30;;;11.40;99.90;;;;;;5116503;28;20016;-81
2022/11/14 07:18:19;;;;;;;2.78;2.00;;;11.40;99.90;;;;;;5115246;28;20020;-82
2022/11/14 07:20:45;;;;;;;2.90;2.55;;;11.40;99.90;;;;;;5099252;28;20015;-81
2022/11/14 07:23:10;;;;;;;3.40;2.50;;;11.40;99.90;;;;;;5093402;28;20020;-82
2022/11/14 07:25:36;;;;;;;2.67;2.20;;;11.50;99.90;;;;;;5093351;28;20035;-82
2022/11/14 07:28:02;;;;;;;2.60;2.20;;;11.50;99.90;;;;;;5077621;28;20024;-82
2022/11/14 07:30:28;;;;;;;3.25;2.63;;;11.50;99.90;;;;;;5065517;28;20074;-82
2022/11/14 07:32:55;;;;;;;3.03;2.70;;;11.50;99.90;;;;;;5030029;28;20036;-82
2022/11/14 07:35:21;;;;;;;3.05;2.22;;;11.50;99.90;;;;;;5087305;28;20016;-86
2022/11/14 07:37:46;;;;;;;2.72;2.50;;;11.50;99.90;;;;;;5098638;28;20502;-83
2022/11/14 07:40:12;;;;;;;2.38;2.17;;;11.50;99.90;;;;;;5097392;28;20028;-82
2022/11/14 07:42:37;;;;;;;2.45;2.20;;;11.50;99.90;;;;;;5112030;28;20058;-83
2022/11/14 07:45:03;;;;;;;2.72;2.30;;;11.60;99.90;;;;;;5115167;28;20024;-82
2022/11/14 07:47:29;;;;;;;2.65;2.17;;;11.60;99.90;;;;;;5087111;28;20107;-81
2022/11/14 07:49:55;;;;;;;2.20;2.00;;;11.60;99.90;;;;;;5099125;28;20039;-87
2022/11/14 07:52:20;;;;;;;2.90;2.30;;;11.70;99.90;;;;;;5072240;28;20124;-80
2022/11/14 07:54:46;;;;;;;3.17;2.20;;;11.70;99.90;;;;;;5095533;28;20658;-81
2022/11/14 07:57:12;;;;;;;3.40;2.42;;;11.70;99.90;;;;;;5092332;28;20030;-81
2022/11/14 07:59:37;;;;;;;2.65;2.03;;;11.70;99.90;;;;;;5116083;28;20055;-80
2022/11/14 08:02:03;;;;;;;3.13;2.10;;;11.70;99.90;;;;;;5113969;28;20042;-81
2022/11/14 08:04:29;;;;;;;3.10;2.50;;;11.70;99.90;;;;;;5084934;28;20024;-80
2022/11/14 08:06:54;;;;;;;2.95;2.42;;;11.70;99.90;;;;;;5082769;28;20030;-81
2022/11/14 08:09:22;;;;;;;3.33;2.45;;;11.70;99.90;;;;;;5069158;28;20029;-81
2022/11/14 08:11:47;;;;;;;2.78;2.30;;;11.70;99.90;;;;;;5070620;28;20516;-81
2022/11/14 08:14:14;;;;;;;3.00;2.42;;;11.60;99.90;;;;;;5074769;28;20036;-81
2022/11/14 08:16:40;;;;;;;2.53;2.05;;;11.60;99.90;;;;;;5059741;28;20026;-80
2022/11/14 08:19:06;;;;;;;4.68;2.45;;;11.60;99.90;;;;;;5054811;28;20532;-80
2022/11/14 08:21:31;;;;;;;2.58;2.15;;;11.60;99.90;;;;;;5069568;28;20081;-80
2022/11/14 08:23:57;;;;;;;2.40;2.20;;;11.60;99.90;;;;;;5075417;28;20042;-80
2022/11/14 08:26:23;;;;;;;2.40;2.20;;;11.60;99.90;;;;;;5103497;28;20032;-85
2022/11/14 08:28:53;;;;;;;2.80;2.30;;;11.70;99.90;;;;;;5069778;28;20036;-83
2022/11/14 08:31:19;;;;;;;2.88;2.30;;;11.70;99.90;;;;;;5063061;28;20071;-85
2022/11/14 08:33:46;;;;;;;2.85;2.20;;;11.70;99.90;;;;;;5075431;28;20024;-85
2022/11/14 08:36:11;;;;;;;3.03;2.67;;;11.70;99.90;;;;;;5097647;28;20485;-85
2022/11/14 08:38:37;;;;;;;3.70;3.05;;;11.70;99.90;;;;;;5082432;28;20024;-80
2022/11/14 08:41:03;;;;;;;2.80;2.35;;;11.70;99.90;;;;;;5071579;28;20254;-79
2022/11/14 08:43:30;;;;;;;3.53;2.90;;;11.70;99.90;;;;;;5099105;28;20082;-80
2022/11/14 08:46:00;;;;;;;3.63;2.40;;;11.70;99.90;;;;;;5100893;28;20903;-79
2022/11/14 08:48:26;;;;;;;4.05;3.28;;;11.70;99.90;;;;;;5091711;28;20041;-79
2022/11/14 08:50:52;;;;;;;3.65;2.80;;;11.70;99.90;;;;;;5081059;28;20055;-79
2022/11/14 08:53:17;;;;;;;3.03;2.22;;;11.70;99.90;;;;;;5094181;28;20024;-78
2022/11/14 08:55:44;;;;;;;2.97;2.47;;;11.80;99.90;;;;;;5091907;28;20446;-78
2022/11/14 08:58:10;;;;;;;2.85;2.50;;;11.80;99.90;;;;;;5102707;28;20024;-79
2022/11/14 09:00:36;;;;;;;3.72;2.90;;;11.80;99.90;;;;;;5082148;28;20079;-79
2022/11/14 09:03:13;;;;;;;4.03;3.10;;;11.80;99.90;;;;;;5066750;28;20081;-80
2022/11/14 09:05:39;;;;;;;2.85;2.15;;;11.80;99.90;;;;;;5083464;28;20036;-81
2022/11/14 09:08:06;;;;;;;3.38;2.60;;;11.80;99.90;;;;;;5066443;28;20026;-81
2022/11/14 09:10:32;;;;;;;5.25;3.83;;;11.90;99.90;;;;;;5050589;28;20034;-82
2022/11/14 09:13:00;;;;;;;3.03;2.60;;;11.90;99.90;;;;;;5071603;28;20081;-80
2022/11/14 09:15:28;;;;;;;3.95;2.83;;;11.90;99.90;;;;;;5073381;28;20046;-81
2022/11/14 09:17:55;;;;;;;3.45;2.95;;;11.90;99.90;;;;;;5071382;28;20020;-80
2022/11/14 09:20:25;;;;;;;2.72;2.22;;;11.90;99.90;;;;;;5081721;28;20032;-80
2022/11/14 09:22:52;;;;;;;2.92;2.30;;;12.00;99.90;;;;;;5058139;28;20043;-78
2022/11/14 09:25:19;;;;;;;2.75;2.40;;;12.00;99.90;;;;;;5062568;28;20116;-79
2022/11/14 09:27:45;;;;;;;2.58;2.17;;;12.10;99.90;;;;;;5067864;28;20021;-79
2022/11/14 09:30:11;;;;;;;4.25;3.45;;;12.20;99.90;;;;;;5080539;28;20054;-79
2022/11/14 09:32:37;;;;;;;4.63;3.70;;;12.30;99.90;;;;;;5071501;28;20424;-79
2022/11/14 09:35:03;;;;;;;3.95;3.15;;;12.20;99.90;;;;;;5076792;28;20028;-72
2022/11/14 09:37:28;;;;;;;3.38;2.88;;;12.30;99.90;;;;;;5094230;28;20110;-72
2022/11/14 09:39:54;;;;;;;3.40;2.65;;;12.30;99.90;;;;;;5088557;28;20104;-72
2022/11/14 09:42:25;;;;;;;2.83;2.35;;;12.40;99.90;;;;;;5085742;28;20027;-76
2022/11/14 09:45:01;;;;;;;4.38;2.63;;;12.40;99.90;;;;;;5064660;28;20070;-72
2022/11/14 09:47:30;;;;;;;2.60;2.33;;;12.40;99.90;;;;;;5106167;28;20020;-71
2022/11/14 09:50:10;;;;;;;3.60;2.60;;;12.40;99.90;;;;;;5090558;28;20050;-72
2022/11/14 09:52:43;;;;;;;2.85;2.30;;;12.50;99.90;;;;;;5078910;28;20389;-72
2022/11/14 09:55:22;;;;;;;2.53;1.98;;;12.60;99.90;;;;;;5090644;28;20042;-72
2022/11/14 09:57:48;;;;;;;5.53;4.15;;;12.60;99.90;;;;;;5098189;28;20499;-74
2022/11/14 10:00:15;;;;;;;3.63;3.13;;;12.70;99.90;;;;;;5097983;28;20024;-74
2022/11/14 10:02:59;;;;;;;3.15;2.33;;;12.70;99.90;;;;;;5098051;28;20031;-75
2022/11/14 10:05:36;;;;;;;3.60;2.47;;;12.70;99.90;;;;;;5097464;28;20157;-75
2022/11/14 10:08:32;;;;;;;5.10;2.35;;;12.70;99.90;;;;;;5118222;28;20023;-75
2022/11/14 10:11:09;;;;;;;6.72;4.20;;;12.70;99.90;;;;;;5103964;28;20097;-75
2022/11/14 10:13:51;;;;;;;3.75;3.10;;;12.80;99.90;;;;;;5080179;28;20035;-74
2022/11/14 10:16:21;;;;;;;5.40;3.70;;;12.80;99.90;;;;;;5095450;28;20103;-75
2022/11/14 10:19:10;;;;;;;3.97;2.92;;;12.80;99.90;;;;;;5097195;28;20066;-75
2022/11/14 10:22:02;;;;;;;5.88;4.15;;;12.80;99.90;;;;;;5066099;28;20608;-72
2022/11/14 10:24:47;;;;;;;6.15;4.60;;;12.90;99.90;;;;;;5097647;28;20162;-72
2022/11/14 10:27:27;;;;;;;3.80;3.00;;;12.90;99.90;;;;;;5067305;28;20115;-72
2022/11/14 10:30:16;;;;;;;3.83;3.35;;;12.90;99.90;;;;;;5070928;28;20122;-72
2022/11/14 10:32:53;;;;;;;5.80;3.85;;;13.00;99.90;;;;;;5070685;28;20028;-73
2022/11/14 10:35:24;;;;;;;3.88;3.45;;;13.00;99.90;;;;;;5060846;28;20026;-73
2022/11/14 10:38:01;;;;;;;3.95;3.35;;;13.10;99.90;;;;;;5095982;28;20065;-73
2022/11/14 10:40:51;;;;;;;4.68;3.20;;;13.20;99.90;;;;;;5112765;28;20028;-74
2022/11/14 10:43:22;;;;;;;4.88;3.88;;;13.40;99.90;;;;;;5116625;28;20472;-75
2022/11/14 10:46:24;;;;;;;4.70;2.92;;;13.40;99.90;;;;;;5079147;28;20093;-74
2022/11/14 10:48:51;;;;;;;3.92;3.53;;;13.50;99.90;;;;;;5095765;28;20044;-74
2022/11/14 10:51:40;;;;;;;3.95;2.83;;;13.50;99.90;;;;;;5096161;28;20084;-71
2022/11/14 10:54:08;;;;;;;5.80;4.40;;;13.60;99.90;;;;;;5083574;28;20036;-72
2022/11/14 10:56:44;;;;;;;6.53;3.97;;;13.60;99.90;;;;;;5083463;28;20032;-71
2022/11/14 10:59:09;;;;;;;5.45;4.15;;;13.60;99.90;;;;;;5072456;28;20483;-71
2022/11/14 11:01:39;;;;;;;5.53;3.22;;;13.60;99.90;;;;;;5081831;28;20020;-71
2022/11/14 11:04:26;;;;;;;5.30;3.88;;;13.60;99.90;;;;;;5088676;28;20030;-71
2022/11/14 11:06:56;;;;;;;5.18;3.35;;;13.60;99.90;;;;;;5066464;28;20078;-72
2022/11/14 11:12:18;;;;;;;4.57;3.30;;;13.60;99.90;;;;;;5066242;28;20471;-72
2022/11/14 11:14:45;;;;;;;5.82;3.45;;;13.60;99.90;;;;;;5090130;28;20036;-73
2022/11/14 11:17:11;;;;;;;4.68;4.00;;;13.70;99.90;;;;;;5094934;28;20012;-73
2022/11/14 11:19:38;;;;;;;5.28;3.70;;;13.70;99.90;;;;;;5066385;28;20027;-69
2022/11/14 11:22:04;;;;;;;3.95;3.30;;;13.70;99.90;;;;;;5058207;28;20020;-74
2022/11/14 11:24:31;;;;;;;7.28;3.90;;;13.60;99.90;;;;;;5066302;28;20039;-76
2022/11/14 11:27:21;;;;;;;5.80;3.40;;;13.60;99.90;;;;;;5064182;28;20607;-77
2022/11/14 11:30:18;;;;;;;4.82;3.80;;;13.60;99.90;;;;;;5096021;28;20024;-82
2022/11/14 11:32:43;;;;;;;4.35;2.85;;;13.60;99.90;;;;;;5096354;28;20020;-73
2022/11/14 11:35:12;;;;;;;5.28;3.85;;;13.70;99.90;;;;;;5088272;28;20081;-74
2022/11/14 11:37:56;;;;;;;4.00;3.28;;;13.70;99.90;;;;;;5095088;28;20032;-74
2022/11/14 11:40:25;;;;;;;4.88;3.95;;;13.70;99.90;;;;;;5099847;28;20024;-73
2022/11/14 11:42:56;;;;;;;5.03;3.70;;;13.80;99.90;;;;;;5096540;28;20063;-77
2022/11/14 11:45:23;;;;;;;6.32;3.90;;;13.80;99.90;;;;;;5089720;28;20652;-77
2022/11/14 11:47:57;;;;;;;5.65;3.85;;;13.80;99.90;;;;;;5039183;28;20116;-73
2022/11/14 11:50:23;;;;;;;5.07;3.40;;;13.90;99.90;;;;;;5090907;28;20035;-74
2022/11/14 11:52:57;;;;;;;4.38;3.30;;;14.00;99.90;;;;;;5026383;28;20056;-74
2022/11/14 11:55:33;;;;;;;4.85;3.20;;;14.00;99.90;;;;;;5020638;28;20022;-74
2022/11/14 11:58:17;;;;;;;5.10;3.40;;;14.00;99.90;;;;;;5078412;28;20484;-74
2022/11/14 12:00:43;;;;;;;5.15;3.70;;;13.90;99.90;;;;;;5058589;28;20020;-74
2022/11/14 12:03:12;;;;;;;4.40;3.13;;;13.90;99.90;;;;;;5074783;28;20499;-73
2022/11/14 12:06:00;;;;;;;4.07;3.15;;;13.90;99.90;;;;;;5066067;28;20034;-74
2022/11/14 12:08:38;;;;;;;3.25;2.38;;;14.00;99.90;;;;;;5051815;28;20051;-75
2022/11/14 12:11:11;;;;;;;2.83;2.10;;;14.00;99.90;;;;;;5074899;28;20078;-74
2022/11/14 12:14:17;;;;;;;4.68;1.73;;;14.00;99.90;;;;;;5093311;28;20024;-75
2022/11/14 12:17:03;;;;;;;2.90;1.55;;;14.00;99.90;;;;;;5094120;28;20043;-76
2022/11/14 12:20:00;;;;;;;3.60;1.80;;;14.00;99.90;;;;;;5086516;28;20615;-76
2022/11/14 12:22:29;;;;;;;2.08;1.83;;;14.00;99.90;;;;;;5086024;28;20694;-74
2022/11/14 12:25:31;;;;;;;4.65;1.48;;;14.00;99.90;;;;;;5089234;28;20449;-74
2022/11/14 12:28:21;;;;;;;5.13;1.25;;;14.20;99.90;;;;;;5079836;28;20016;-74
2022/11/14 12:30:52;;;;;;;2.13;1.10;;;14.20;99.90;;;;;;5067098;28;20026;-74
2022/11/14 12:33:28;;;;;;;2.78;1.35;;;14.30;99.90;;;;;;5046120;28;20396;-75
2022/11/14 12:35:57;;;;;;;1.20;1.00;;;14.50;99.90;;;;;;5054603;28;20012;-76
2022/11/14 12:38:23;;;;;;;1.25;0.98;;;14.60;99.90;;;;;;5063086;28;20569;-74
2022/11/14 12:40:53;;;;;;;1.70;1.00;;;14.60;99.90;;;;;;5068213;28;20016;-75
2022/11/14 12:43:43;;;;;;;0.95;0.57;;;14.60;99.90;;;;;;5055335;28;20030;-74
2022/11/14 12:46:11;;;;;;;1.33;0.50;;;14.60;99.90;;;;;;5059181;28;20024;-74
2022/11/14 12:48:45;;;;;;;0.70;0.60;;;14.50;99.90;;;;;;5061254;28;20052;-75
2022/11/14 12:51:28;;;;;;;0.50;0.50;;;14.50;99.90;;;;;;5065916;28;20698;-75
2022/11/14 12:53:55;;;;;;;0.90;0.40;;;14.50;99.90;;;;;;5059173;28;20020;-75
2022/11/14 12:56:24;;;;;;;0.68;0.40;;;14.50;99.90;;;;;;5052984;28;20021;-75
2022/11/14 12:59:22;;;;;;;1.75;0.50;;;14.50;99.90;;;;;;5048045;28;20024;-75